createdAt,value
2023-05-06T00:01:24.428Z,2.50
2023-05-06T00:03:52.730Z,3.10
2023-05-06T00:06:21.539Z,3.10
2023-05-06T00:08:49.456Z,3.00
2023-05-06T00:11:17.380Z,3.00
2023-05-06T00:13:45.307Z,2.90
2023-05-06T00:16:13.206Z,2.70
2023-05-06T00:18:42.103Z,3.40
2023-05-06T00:21:10.130Z,2.90
2023-05-06T00:23:38.245Z,3.20
2023-05-06T00:26:06.240Z,2.80
2023-05-06T00:28:34.250Z,3.70
2023-05-06T00:31:02.212Z,3.10
2023-05-06T00:33:30.118Z,3.50
2023-05-06T00:35:58.007Z,3.30
2023-05-06T00:38:26.991Z,3.20
2023-05-06T00:40:55.458Z,3.20
2023-05-06T00:43:23.576Z,3.90
2023-05-06T00:45:52.079Z,3.70
2023-05-06T00:48:20.070Z,3.50
2023-05-06T00:50:48.262Z,4.00
2023-05-06T00:53:19.093Z,3.50
2023-05-06T00:55:48.077Z,3.90
2023-05-06T00:58:16.063Z,4.10
2023-05-06T01:00:44.817Z,3.20
2023-05-06T01:03:12.965Z,3.40
2023-05-06T01:06:04.080Z,3.80
2023-05-06T01:08:34.935Z,3.60
2023-05-06T01:11:07.629Z,3.70
2023-05-06T01:13:36.292Z,3.00
2023-05-06T01:16:07.871Z,4.10
2023-05-06T01:18:38.766Z,3.70
2023-05-06T01:21:12.436Z,3.20
2023-05-06T01:23:54.036Z,3.30
2023-05-06T01:26:23.081Z,3.40
2023-05-06T01:28:53.994Z,3.00
2023-05-06T01:31:27.038Z,3.20
2023-05-06T01:33:57.798Z,3.10
2023-05-06T01:36:39.977Z,2.50
2023-05-06T01:39:07.951Z,3.40
2023-05-06T01:41:39.062Z,2.80
2023-05-06T01:44:07.774Z,2.90
2023-05-06T01:46:36.230Z,2.80
2023-05-06T01:49:06.114Z,3.00
2023-05-06T01:51:34.310Z,3.00
2023-05-06T01:54:03.214Z,3.00
2023-05-06T01:56:31.424Z,3.00
2023-05-06T01:59:00.432Z,3.40
2023-05-06T02:01:28.500Z,3.20
2023-05-06T02:03:56.824Z,2.90
2023-05-06T02:06:24.777Z,2.90
2023-05-06T02:08:52.743Z,3.40
2023-05-06T02:11:23.699Z,3.10
2023-05-06T02:13:55.200Z,3.00
2023-05-06T02:16:23.230Z,3.30
2023-05-06T02:18:51.394Z,2.70
2023-05-06T02:21:19.411Z,3.10
2023-05-06T02:23:47.380Z,3.10
2023-05-06T02:26:16.568Z,3.50
2023-05-06T02:28:44.447Z,3.80
2023-05-06T02:31:14.975Z,3.40
2023-05-06T02:33:43.718Z,3.50
2023-05-06T02:36:12.221Z,3.50
2023-05-06T02:38:40.213Z,4.10
2023-05-06T02:41:08.305Z,3.40
2023-05-06T02:43:36.358Z,4.30
2023-05-06T02:46:06.180Z,4.40
2023-05-06T02:48:35.348Z,3.50
2023-05-06T02:51:05.391Z,3.30
2023-05-06T02:53:33.327Z,3.80
2023-05-06T02:56:01.213Z,3.30
2023-05-06T02:58:29.312Z,3.70
2023-05-06T03:00:57.223Z,4.10
2023-05-06T03:03:25.376Z,3.20
2023-05-06T03:05:53.439Z,3.00
2023-05-06T03:08:21.610Z,3.70
2023-05-06T03:10:50.853Z,3.10
2023-05-06T03:13:19.289Z,3.70
2023-05-06T03:15:51.245Z,3.20
2023-05-06T03:18:19.186Z,3.30
2023-05-06T03:20:48.340Z,3.50
2023-05-06T03:23:16.445Z,3.20
2023-05-06T03:25:44.635Z,3.30
2023-05-06T03:28:12.633Z,3.70
2023-05-06T03:30:41.067Z,3.20
2023-05-06T03:33:09.290Z,3.20
2023-05-06T03:35:37.391Z,3.60
2023-05-06T03:38:05.528Z,3.20
2023-05-06T03:40:39.752Z,3.40
2023-05-06T03:43:08.121Z,3.00
2023-05-06T03:45:36.387Z,3.40
2023-05-06T03:48:04.603Z,3.10
2023-05-06T03:50:33.381Z,3.10
2023-05-06T03:53:01.417Z,3.50
2023-05-06T03:55:30.113Z,3.40
2023-05-06T03:57:58.769Z,3.60
2023-05-06T04:00:27.021Z,3.20
2023-05-06T04:02:55.297Z,3.30
2023-05-06T04:05:27.758Z,3.60
2023-05-06T04:07:55.840Z,3.40
2023-05-06T04:10:24.466Z,2.80
2023-05-06T04:12:53.542Z,3.90
2023-05-06T04:15:25.976Z,3.40
2023-05-06T04:17:53.974Z,3.20
2023-05-06T04:20:22.147Z,2.90
2023-05-06T04:22:50.447Z,3.40
2023-05-06T04:25:19.721Z,2.80
2023-05-06T04:27:48.001Z,3.80
2023-05-06T04:30:16.319Z,3.10
2023-05-06T04:32:44.198Z,3.90
2023-05-06T04:35:12.539Z,3.30
2023-05-06T04:37:41.410Z,3.60
2023-05-06T04:40:14.154Z,3.20
2023-05-06T04:42:43.838Z,4.00
2023-05-06T04:47:45.167Z,3.60
2023-05-06T04:50:13.983Z,3.10
2023-05-06T04:52:42.239Z,3.80
2023-05-06T04:55:11.497Z,3.20
2023-05-06T04:57:41.518Z,3.70
2023-05-06T05:00:10.943Z,3.60
2023-05-06T05:02:39.529Z,3.70
2023-05-06T05:05:08.250Z,3.40
2023-05-06T05:07:37.168Z,4.30
2023-05-06T05:10:06.098Z,4.20
2023-05-06T05:12:34.865Z,4.10
2023-05-06T05:15:03.305Z,4.70
2023-05-06T05:17:31.698Z,4.10
2023-05-06T05:19:59.843Z,4.20
2023-05-06T05:22:28.437Z,4.10
2023-05-06T05:24:56.580Z,4.10
2023-05-06T05:27:24.524Z,4.60
2023-05-06T05:29:52.886Z,4.30
2023-05-06T05:32:22.080Z,3.60
2023-05-06T05:34:50.738Z,4.10
2023-05-06T05:37:19.372Z,4.00
2023-05-06T05:39:47.735Z,5.10
2023-05-06T05:42:16.169Z,5.10
2023-05-06T05:44:44.481Z,4.10
2023-05-06T05:47:12.816Z,3.40
2023-05-06T05:49:41.134Z,4.00
2023-05-06T05:52:10.105Z,3.60
2023-05-06T05:54:38.524Z,4.00
2023-05-06T05:57:07.577Z,3.90
2023-05-06T05:59:36.708Z,4.00
2023-05-06T06:02:05.488Z,3.70
2023-05-06T06:04:33.901Z,3.70
2023-05-06T06:07:02.941Z,3.70
2023-05-06T06:09:32.744Z,3.70
2023-05-06T06:12:02.055Z,4.20
2023-05-06T06:14:31.101Z,4.30
2023-05-06T06:16:59.257Z,4.00
2023-05-06T06:19:27.747Z,3.50
2023-05-06T06:21:56.138Z,3.10
2023-05-06T06:24:24.789Z,3.60
2023-05-06T06:26:52.918Z,3.50
2023-05-06T06:29:20.975Z,3.10
2023-05-06T06:31:49.350Z,3.30
2023-05-06T06:34:17.521Z,2.90
2023-05-06T06:36:45.788Z,3.10
2023-05-06T06:39:13.983Z,2.80
2023-05-06T06:41:42.019Z,3.40
2023-05-06T06:44:09.981Z,3.00
2023-05-06T06:46:38.926Z,2.40
2023-05-06T06:49:06.905Z,3.70
2023-05-06T06:51:34.997Z,3.00
2023-05-06T06:54:03.239Z,3.00
2023-05-06T06:56:32.020Z,3.00
2023-05-06T06:59:00.017Z,3.20
2023-05-06T07:01:28.223Z,3.00
2023-05-06T07:03:56.358Z,2.80
2023-05-06T07:06:24.419Z,2.90
2023-05-06T07:08:52.445Z,2.80
2023-05-06T07:11:20.692Z,2.90
2023-05-06T07:13:48.596Z,3.30
2023-05-06T07:16:16.704Z,3.40
2023-05-06T07:18:45.455Z,3.10
2023-05-06T07:21:13.353Z,3.10
2023-05-06T07:23:41.529Z,2.80
2023-05-06T07:26:09.581Z,2.90
2023-05-06T07:28:37.924Z,2.90
2023-05-06T07:31:06.059Z,3.20
2023-05-06T07:33:34.048Z,3.20
2023-05-06T07:36:02.012Z,3.30
2023-05-06T07:38:30.099Z,2.90
2023-05-06T07:40:58.131Z,3.40
2023-05-06T07:43:26.302Z,2.70
2023-05-06T07:46:02.356Z,3.20
2023-05-06T07:48:30.429Z,3.80
2023-05-06T07:50:58.758Z,3.00
2023-05-06T07:53:27.117Z,2.80
2023-05-06T07:55:57.244Z,3.20
2023-05-06T07:58:25.286Z,3.00
2023-05-06T08:00:53.324Z,2.80
2023-05-06T08:03:21.566Z,2.60
2023-05-06T08:05:53.122Z,3.10
2023-05-06T08:08:22.634Z,5.10
2023-05-06T08:10:50.658Z,4.30
2023-05-06T08:13:18.795Z,3.80
2023-05-06T08:15:47.152Z,4.30
2023-05-06T08:18:22.296Z,3.70
2023-05-06T08:20:51.362Z,3.00
2023-05-06T08:23:19.266Z,3.80
2023-05-06T08:25:47.408Z,3.60
2023-05-06T08:28:15.451Z,3.50
2023-05-06T08:30:43.392Z,3.20
2023-05-06T08:33:11.510Z,2.90
2023-05-06T08:35:39.747Z,8.10
2023-05-06T08:38:08.143Z,3.50
2023-05-06T08:40:38.586Z,3.20
2023-05-06T08:43:06.893Z,3.70
2023-05-06T08:45:35.015Z,3.60
2023-05-06T08:48:03.083Z,3.40
2023-05-06T08:50:31.265Z,3.20
2023-05-06T08:53:00.961Z,3.60
2023-05-06T08:55:30.747Z,3.40
2023-05-06T08:57:59.245Z,3.30
2023-05-06T09:00:27.308Z,3.10
2023-05-06T09:02:55.356Z,3.70
2023-05-06T09:05:23.525Z,2.80
2023-05-06T09:07:51.774Z,2.80
2023-05-06T09:10:19.943Z,3.00
2023-05-06T09:12:48.093Z,3.00
2023-05-06T09:15:16.545Z,3.40
2023-05-06T09:17:44.946Z,3.00
2023-05-06T09:20:13.056Z,3.30
2023-05-06T09:22:41.564Z,2.80
2023-05-06T09:25:11.792Z,3.00
2023-05-06T09:27:40.312Z,3.10
2023-05-06T09:30:09.524Z,2.80
2023-05-06T09:32:39.975Z,3.00
2023-05-06T09:35:09.446Z,3.10
2023-05-06T09:37:37.840Z,2.60
2023-05-06T09:40:06.474Z,2.70
2023-05-06T09:42:34.665Z,3.00
2023-05-06T09:45:03.732Z,2.60
2023-05-06T09:47:35.401Z,2.90
2023-05-06T09:50:03.978Z,3.00
2023-05-06T09:52:32.041Z,2.70
2023-05-06T09:55:00.676Z,2.90
2023-05-06T09:57:30.892Z,3.30
2023-05-06T10:00:00.787Z,2.50
2023-05-06T10:02:29.322Z,2.50
2023-05-06T10:04:58.689Z,3.80
2023-05-06T10:07:28.948Z,3.10
2023-05-06T10:09:58.424Z,2.50
2023-05-06T10:12:26.603Z,3.00
2023-05-06T10:14:54.727Z,2.80
2023-05-06T10:17:26.019Z,2.80
2023-05-06T10:19:57.754Z,3.10
2023-05-06T10:22:41.031Z,2.70
2023-05-06T10:25:32.269Z,2.90
2023-05-06T10:28:01.543Z,3.00
2023-05-06T10:30:31.278Z,2.90
2023-05-06T10:33:03.392Z,2.40
2023-05-06T10:35:46.628Z,2.60
2023-05-06T10:38:22.068Z,2.70
2023-05-06T10:40:50.665Z,2.90
2023-05-06T10:43:26.084Z,2.80
2023-05-06T10:46:00.896Z,2.50
2023-05-06T10:48:29.205Z,2.80
2023-05-06T10:51:16.039Z,2.50
2023-05-06T10:54:03.925Z,2.80
2023-05-06T10:56:32.715Z,2.90
2023-05-06T10:59:11.278Z,2.40
2023-05-06T11:01:40.300Z,2.80
2023-05-06T11:04:15.789Z,2.80
2023-05-06T11:06:48.390Z,2.60
2023-05-06T11:09:20.231Z,2.90
2023-05-06T11:12:06.627Z,2.80
2023-05-06T11:14:38.696Z,2.90
2023-05-06T11:17:07.694Z,2.40
2023-05-06T11:19:37.405Z,2.30
2023-05-06T11:22:06.426Z,2.30
2023-05-06T11:24:41.947Z,2.60
2023-05-06T11:27:10.694Z,2.60
2023-05-06T11:29:38.800Z,2.40
2023-05-06T11:32:17.728Z,2.30
2023-05-06T11:34:45.907Z,2.30
2023-05-06T11:37:24.055Z,2.20
2023-05-06T11:39:52.377Z,3.00
2023-05-06T11:42:27.575Z,3.60
2023-05-06T11:44:56.048Z,2.60
2023-05-06T11:47:24.365Z,3.20
2023-05-06T11:49:54.523Z,2.60
2023-05-06T11:52:22.475Z,4.10
2023-05-06T11:54:51.553Z,2.90
2023-05-06T11:57:26.248Z,2.60
2023-05-06T11:59:54.960Z,2.70
2023-05-06T12:02:23.121Z,2.50
2023-05-06T12:04:53.012Z,2.50
2023-05-06T12:07:21.240Z,2.20
2023-05-06T12:09:50.038Z,2.20
2023-05-06T12:12:20.052Z,2.40
2023-05-06T12:14:49.344Z,2.30
2023-05-06T12:17:17.659Z,2.50
2023-05-06T12:19:46.742Z,2.30
2023-05-06T12:22:27.285Z,2.60
2023-05-06T12:24:55.684Z,2.60
2023-05-06T12:27:33.645Z,3.00
2023-05-06T12:30:04.268Z,2.40
2023-05-06T12:32:32.621Z,2.60
2023-05-06T12:35:08.227Z,3.60
2023-05-06T12:37:36.368Z,2.90
2023-05-06T12:40:04.671Z,2.40
2023-05-06T12:42:33.542Z,2.90
2023-05-06T12:45:13.111Z,2.10
2023-05-06T12:47:51.773Z,2.40
2023-05-06T12:50:33.364Z,2.50
2023-05-06T12:53:02.273Z,2.50
2023-05-06T12:55:30.997Z,2.60
2023-05-06T12:57:59.384Z,2.60
2023-05-06T13:00:27.796Z,2.20
2023-05-06T13:02:56.141Z,3.40
2023-05-06T13:05:24.396Z,3.40
2023-05-06T13:07:55.008Z,2.00
2023-05-06T13:10:23.203Z,2.50
2023-05-06T13:12:51.376Z,2.10
2023-05-06T13:15:19.685Z,2.40
2023-05-06T13:17:48.728Z,2.20
2023-05-06T13:20:17.457Z,2.10
2023-05-06T13:22:54.435Z,3.20
2023-05-06T13:25:23.523Z,2.10
2023-05-06T13:27:51.517Z,1.80
2023-05-06T13:30:19.739Z,2.10
2023-05-06T13:32:48.248Z,2.30
2023-05-06T13:35:16.612Z,2.40
2023-05-06T13:37:44.758Z,2.10
2023-05-06T13:40:13.173Z,2.50
2023-05-06T13:42:41.340Z,2.00
2023-05-06T13:45:09.725Z,1.90
2023-05-06T13:47:37.974Z,1.70
2023-05-06T13:50:06.577Z,1.80
2023-05-06T13:52:34.471Z,1.60
2023-05-06T13:55:02.690Z,1.50
2023-05-06T13:57:35.690Z,1.80
2023-05-06T14:00:07.648Z,1.80
2023-05-06T14:02:38.219Z,2.20
2023-05-06T14:05:06.989Z,1.90
2023-05-06T14:07:35.237Z,2.20
2023-05-06T14:10:03.521Z,1.90
2023-05-06T14:12:31.502Z,1.80
2023-05-06T14:14:59.996Z,1.50
2023-05-06T14:17:28.004Z,1.40
2023-05-06T14:19:56.126Z,1.70
2023-05-06T14:22:24.926Z,1.30
2023-05-06T14:24:52.942Z,1.80
2023-05-06T14:27:21.153Z,1.70
2023-05-06T14:29:49.233Z,1.40
2023-05-06T14:32:17.510Z,1.60
2023-05-06T14:34:46.576Z,1.20
2023-05-06T14:37:15.375Z,1.30
2023-05-06T14:39:43.382Z,1.50
2023-05-06T14:42:11.511Z,1.50
2023-05-06T14:44:39.795Z,1.60
2023-05-06T14:47:07.722Z,1.20
2023-05-06T14:49:36.992Z,1.40
2023-05-06T14:52:06.844Z,1.30
2023-05-06T14:54:35.516Z,1.30
2023-05-06T14:57:03.606Z,1.60
2023-05-06T14:59:31.916Z,1.50
2023-05-06T15:01:59.810Z,1.40
2023-05-06T15:04:27.885Z,1.70
2023-05-06T15:06:58.029Z,1.70
2023-05-06T15:09:26.445Z,1.70
2023-05-06T15:11:54.958Z,1.60
2023-05-06T15:14:23.223Z,1.70
2023-05-06T15:16:52.410Z,1.70
2023-05-06T15:19:20.530Z,1.80
2023-05-06T15:21:48.654Z,1.50
2023-05-06T15:24:16.617Z,1.40
2023-05-06T15:26:44.751Z,1.90
2023-05-06T15:29:13.190Z,2.30
2023-05-06T15:31:43.883Z,2.10
2023-05-06T15:34:12.335Z,2.30
2023-05-06T15:36:41.647Z,2.00
2023-05-06T15:39:09.718Z,2.10
2023-05-06T15:41:38.048Z,2.10
2023-05-06T15:44:06.587Z,2.80
2023-05-06T15:46:34.866Z,1.70
2023-05-06T15:49:31.883Z,1.80
2023-05-06T15:51:51.090Z,1.70
2023-05-06T15:54:19.053Z,1.80
2023-05-06T15:56:47.087Z,1.90
2023-05-06T15:59:15.539Z,1.60
2023-05-06T16:02:24.444Z,2.00
2023-05-06T16:04:32.171Z,2.00
2023-05-06T16:07:00.334Z,2.20
2023-05-06T16:09:28.263Z,2.40
2023-05-06T16:11:56.451Z,2.00
2023-05-06T16:14:24.452Z,2.20
2023-05-06T16:16:52.715Z,2.10
2023-05-06T16:19:20.831Z,1.60
2023-05-06T16:21:48.749Z,1.90
2023-05-06T16:24:16.706Z,1.70
2023-05-06T16:26:45.012Z,2.00
2023-05-06T16:29:12.888Z,1.90
2023-05-06T16:31:40.854Z,1.40
2023-05-06T16:34:08.975Z,1.50
2023-05-06T16:36:36.900Z,2.30
2023-05-06T16:39:06.403Z,2.40
2023-05-06T16:41:34.602Z,2.50
2023-05-06T16:44:02.524Z,2.40
2023-05-06T16:46:30.567Z,3.30
2023-05-06T16:48:58.911Z,2.60
2023-05-06T16:51:27.247Z,3.10
2023-05-06T16:53:55.094Z,2.60
2023-05-06T16:56:23.536Z,2.60
2023-05-06T16:58:51.937Z,5.70
2023-05-06T17:01:19.983Z,8.80
2023-05-06T17:03:48.479Z,5.50
2023-05-06T17:06:16.497Z,4.10
2023-05-06T17:08:44.553Z,3.50
2023-05-06T17:11:12.906Z,3.20
2023-05-06T17:13:41.110Z,3.00
2023-05-06T17:16:09.195Z,2.90
2023-05-06T17:18:37.535Z,3.00
2023-05-06T17:21:07.171Z,3.50
2023-05-06T17:23:35.185Z,3.90
2023-05-06T17:26:06.507Z,3.70
2023-05-06T17:28:37.979Z,4.50
2023-05-06T17:31:09.871Z,4.50
2023-05-06T17:33:37.854Z,4.30
2023-05-06T17:36:05.902Z,5.20
2023-05-06T17:38:33.962Z,5.40
2023-05-06T17:41:01.874Z,6.90
2023-05-06T17:43:29.846Z,5.80
2023-05-06T17:45:58.047Z,5.40
2023-05-06T17:48:25.977Z,7.20
2023-05-06T17:50:54.036Z,6.50
2023-05-06T17:53:22.099Z,7.40
2023-05-06T17:55:50.004Z,7.50
2023-05-06T17:58:18.587Z,6.50
2023-05-06T18:00:47.052Z,7.60
2023-05-06T18:03:15.115Z,7.50
2023-05-06T18:05:43.133Z,7.50
2023-05-06T18:08:11.147Z,7.40
2023-05-06T18:10:41.114Z,7.50
2023-05-06T18:13:09.467Z,7.30
2023-05-06T18:15:37.521Z,7.10
2023-05-06T18:18:05.510Z,7.00
2023-05-06T18:20:33.725Z,6.80
2023-05-06T18:23:02.146Z,8.00
2023-05-06T18:25:30.167Z,6.80
2023-05-06T18:27:57.990Z,7.30
2023-05-06T18:30:26.012Z,7.50
2023-05-06T18:32:55.958Z,7.50
2023-05-06T18:35:24.756Z,6.50
2023-05-06T18:37:53.038Z,7.00
2023-05-06T18:40:21.106Z,7.90
2023-05-06T18:42:49.012Z,6.80
2023-05-06T18:45:17.268Z,6.20
2023-05-06T18:47:45.355Z,6.50
2023-05-06T18:50:13.447Z,6.40
2023-05-06T18:52:41.820Z,7.00
2023-05-06T18:55:10.293Z,7.60
2023-05-06T18:57:38.881Z,7.00
2023-05-06T19:00:07.582Z,7.20
2023-05-06T19:02:35.716Z,7.70
2023-05-06T19:05:03.849Z,6.90
2023-05-06T19:07:32.032Z,7.20
2023-05-06T19:10:00.973Z,7.30
2023-05-06T19:12:29.912Z,6.90
2023-05-06T19:14:58.497Z,7.10
2023-05-06T19:17:27.133Z,7.30
2023-05-06T19:19:55.198Z,7.00
2023-05-06T19:22:23.416Z,7.20
2023-05-06T19:24:51.855Z,7.40
2023-05-06T19:27:19.782Z,7.40
2023-05-06T19:29:48.520Z,7.60
2023-05-06T19:32:16.765Z,7.50
2023-05-06T19:34:44.775Z,7.50
2023-05-06T19:37:12.773Z,7.60
2023-05-06T19:39:40.710Z,6.90
2023-05-06T19:42:08.731Z,7.30
2023-05-06T19:44:37.402Z,7.40
2023-05-06T19:47:05.396Z,7.00
2023-05-06T19:49:33.548Z,6.70
2023-05-06T19:52:02.113Z,7.20
2023-05-06T19:54:30.206Z,7.20
2023-05-06T19:56:59.892Z,7.40
2023-05-06T19:59:27.978Z,7.50
2023-05-06T20:01:58.753Z,7.00
2023-05-06T20:04:27.932Z,6.60
2023-05-06T20:06:56.288Z,6.90
2023-05-06T20:09:24.210Z,6.70
2023-05-06T20:11:52.222Z,8.00
2023-05-06T20:14:20.323Z,7.60
2023-05-06T20:16:48.436Z,8.00
2023-05-06T20:19:17.588Z,7.90
2023-05-06T20:21:45.785Z,7.50
2023-05-06T20:24:14.018Z,8.20
2023-05-06T20:26:42.157Z,7.60
2023-05-06T20:29:10.334Z,7.50
2023-05-06T20:31:38.584Z,7.10
2023-05-06T20:34:06.520Z,7.70
2023-05-06T20:36:35.315Z,6.30
2023-05-06T20:39:03.446Z,6.90
2023-05-06T20:41:32.256Z,6.70
2023-05-06T20:44:00.284Z,7.50
2023-05-06T20:46:28.132Z,7.00
2023-05-06T20:48:56.177Z,6.10
2023-05-06T20:51:24.306Z,6.00
2023-05-06T20:53:52.807Z,6.40
2023-05-06T20:56:22.126Z,6.20
2023-05-06T20:58:51.200Z,6.50
2023-05-06T21:01:19.756Z,6.00
2023-05-06T21:03:48.055Z,6.30
2023-05-06T21:06:17.238Z,6.10
2023-05-06T21:08:46.353Z,6.10
2023-05-06T21:11:14.428Z,6.40
2023-05-06T21:13:42.476Z,6.00
2023-05-06T21:16:10.568Z,5.70
2023-05-06T21:18:38.593Z,5.30
2023-05-06T21:21:06.846Z,6.00
2023-05-06T21:23:35.591Z,5.60
2023-05-06T21:26:03.645Z,5.70
2023-05-06T21:28:31.751Z,5.70
2023-05-06T21:30:59.685Z,5.60
2023-05-06T21:33:27.895Z,5.80
2023-05-06T21:35:56.012Z,5.80
2023-05-06T21:38:24.108Z,5.50
2023-05-06T21:40:51.933Z,5.60
2023-05-06T21:43:20.098Z,5.40
2023-05-06T21:45:48.242Z,4.70
2023-05-06T21:48:16.540Z,5.40
2023-05-06T21:50:45.100Z,5.00
2023-05-06T21:53:13.098Z,5.10
2023-05-06T21:55:41.095Z,4.10
2023-05-06T21:58:09.259Z,5.30
2023-05-06T22:00:37.194Z,5.30
2023-05-06T22:03:05.450Z,4.80
2023-05-06T22:05:33.530Z,4.80
2023-05-06T22:08:01.708Z,4.80
2023-05-06T22:10:29.656Z,4.60
2023-05-06T22:12:57.730Z,4.40
2023-05-06T22:15:25.676Z,4.00
2023-05-06T22:17:53.803Z,4.80
2023-05-06T22:20:22.828Z,4.20
2023-05-06T22:22:51.848Z,5.10
2023-05-06T22:25:20.146Z,4.90
2023-05-06T22:27:48.343Z,4.50
2023-05-06T22:30:16.478Z,4.80
2023-05-06T22:32:44.791Z,5.10
2023-05-06T22:35:13.027Z,5.20
2023-05-06T22:37:41.514Z,4.70
2023-05-06T22:40:10.110Z,5.10
2023-05-06T22:42:38.893Z,5.50
2023-05-06T22:45:07.138Z,5.60
2023-05-06T22:47:35.357Z,5.80
2023-05-06T22:50:03.351Z,5.60
2023-05-06T22:52:31.393Z,6.70
2023-05-06T22:54:59.443Z,5.20
2023-05-06T22:57:27.425Z,5.30
2023-05-06T22:59:55.702Z,5.10
2023-05-06T23:02:23.971Z,5.10
2023-05-06T23:04:52.094Z,5.20
2023-05-06T23:07:20.073Z,5.20
2023-05-06T23:09:48.141Z,4.80
2023-05-06T23:12:16.199Z,5.30
2023-05-06T23:14:44.105Z,6.10
2023-05-06T23:17:12.210Z,4.60
2023-05-06T23:19:40.125Z,5.60
2023-05-06T23:22:08.213Z,6.20
2023-05-06T23:24:36.549Z,5.20
2023-05-06T23:27:04.508Z,5.80
2023-05-06T23:29:32.384Z,5.50
2023-05-06T23:32:00.586Z,5.10
2023-05-06T23:34:28.684Z,5.40
2023-05-06T23:36:56.734Z,5.40
2023-05-06T23:39:24.790Z,5.00
2023-05-06T23:41:52.701Z,5.00
2023-05-06T23:44:20.674Z,5.80
2023-05-06T23:46:48.749Z,5.30
2023-05-06T23:49:16.803Z,5.30
2023-05-06T23:51:44.669Z,4.40
2023-05-06T23:54:12.868Z,4.30
2023-05-06T23:56:40.948Z,5.30
2023-05-06T23:59:08.942Z,4.30
